Geneva Cointrin International Airport LSGG

Airport Data

Name: Geneva Cointrin International Airport

Ident: LSGG

Lat: 46.23809814

Long: 6.108950138

Elevation: 1411 ft

IataCode: GVA

City: Geneva

Homepage: http://www.gva.ch/

Metar

2021/09/28 07:20
LSGG 280720Z 04005KT 9999 BKN038 16/10 Q1023 NOSIG

Taf

2021/09/28 06:33
TAF TAF LSGG 280525Z 2806/2912 VRB02KT 9999 BKN030 TX20/2815Z TN15/2806Z TN12/2905Z
BECMG 2809/2811 07008KT
BECMG 2817/2819 VRB02KT
TEMPO 2819/2903 SHRA
Add a Webcam Url. We will unlock it as soon is possible. Thank you:
Url: Title: